createdAt,value
2023-02-19T00:01:45.475Z,100316.09
2023-02-19T00:04:16.444Z,100313.56
2023-02-19T00:06:45.834Z,100312.56
2023-02-19T00:09:15.724Z,100312.69
2023-02-19T00:11:46.492Z,100325.13
2023-02-19T00:14:17.521Z,100319.78
2023-02-19T00:16:45.901Z,100250.06
2023-02-19T00:19:15.858Z,100158.44
2023-02-19T00:21:44.104Z,100233.28
2023-02-19T00:24:14.406Z,100326.81
2023-02-19T00:26:44.745Z,100320.88
2023-02-19T00:29:17.225Z,100319.78
2023-02-19T00:31:46.232Z,100232.03
2023-02-19T00:34:15.287Z,100236.13
2023-02-19T00:36:44.209Z,100216.41
2023-02-19T00:39:18.664Z,100254.97
2023-02-19T00:41:47.120Z,100319.78
2023-02-19T00:44:17.355Z,100316.09
2023-02-19T00:46:47.501Z,100137.34
2023-02-19T00:49:18.596Z,100316.09
2023-02-19T00:51:47.209Z,100312.69
2023-02-19T00:54:16.013Z,100302.31
2023-02-19T00:56:44.448Z,100130.44
2023-02-19T00:59:12.835Z,100306.09
2023-02-19T01:01:44.629Z,100326.81
2023-02-19T01:04:13.533Z,100326.81
2023-02-19T01:06:41.991Z,100314.41
2023-02-19T01:09:10.362Z,100171.38
2023-02-19T01:11:38.718Z,100325.94
2023-02-19T01:14:07.160Z,100333.00
2023-02-19T01:16:35.400Z,100332.16
2023-02-19T01:19:05.207Z,100329.47
2023-02-19T01:21:33.481Z,100323.13
2023-02-19T01:24:02.253Z,100328.47
2023-02-19T01:26:32.751Z,100327.66
2023-02-19T01:29:02.120Z,100323.13
2023-02-19T01:31:31.284Z,100234.13
2023-02-19T01:34:02.085Z,100244.28
2023-02-19T01:36:34.660Z,100337.22
2023-02-19T01:39:05.292Z,100336.22
2023-02-19T01:41:36.494Z,100337.22
2023-02-19T01:44:08.085Z,100344.25
2023-02-19T01:46:37.677Z,100340.75
2023-02-19T01:49:09.499Z,100347.94
2023-02-19T01:51:43.220Z,100342.59
2023-02-19T01:54:13.987Z,100333.84
2023-02-19T01:56:43.940Z,100155.78
2023-02-19T01:59:12.533Z,100344.41
2023-02-19T02:01:41.895Z,100347.94
2023-02-19T02:04:13.611Z,100244.56
2023-02-19T02:06:49.392Z,100245.41
2023-02-19T02:09:34.555Z,100345.25
2023-02-19T02:12:02.780Z,100354.16
2023-02-19T02:14:35.616Z,100348.94
2023-02-19T02:17:14.561Z,100347.94
2023-02-19T02:20:04.393Z,100348.94
2023-02-19T02:22:39.464Z,100264.00
2023-02-19T02:25:41.474Z,100350.19
2023-02-19T02:28:30.963Z,100350.19
2023-02-19T02:31:04.142Z,100353.84
2023-02-19T02:33:37.557Z,100267.78
2023-02-19T02:36:10.320Z,100359.22
2023-02-19T02:38:41.985Z,100281.72
2023-02-19T02:41:11.397Z,100181.78
2023-02-19T02:43:39.896Z,100350.50
2023-02-19T02:46:12.968Z,100362.59
2023-02-19T02:48:46.821Z,100373.31
2023-02-19T02:51:21.950Z,100374.28
2023-02-19T02:54:11.105Z,100373.31
2023-02-19T02:56:41.544Z,100367.94
2023-02-19T02:59:12.307Z,100378.66
2023-02-19T03:02:04.055Z,100378.66
2023-02-19T03:04:37.979Z,100378.94
2023-02-19T03:07:10.125Z,100385.13
2023-02-19T03:09:41.498Z,100389.38
2023-02-19T03:12:32.304Z,100318.59
2023-02-19T03:15:24.853Z,100355.81
2023-02-19T03:18:15.185Z,100361.03
2023-02-19T03:20:48.254Z,100373.59
2023-02-19T03:23:19.120Z,100373.59
2023-02-19T03:26:06.206Z,100394.44
2023-02-19T03:28:54.939Z,100402.88
2023-02-19T03:31:25.901Z,100411.06
2023-02-19T03:33:59.669Z,100417.81
2023-02-19T03:36:32.397Z,100422.88
2023-02-19T03:39:04.045Z,100418.66
2023-02-19T03:41:37.304Z,100410.75
2023-02-19T03:44:13.871Z,100442.63
2023-02-19T03:46:47.891Z,100442.06
2023-02-19T03:49:24.449Z,100437.00
2023-02-19T03:52:00.046Z,100446.72
2023-02-19T03:54:37.228Z,100446.84
2023-02-19T03:57:11.744Z,100447.69
2023-02-19T03:59:45.389Z,100445.16
2023-02-19T04:02:15.450Z,100446.97
2023-02-19T04:04:48.776Z,100444.31
2023-02-19T04:07:17.108Z,100444.31
2023-02-19T04:09:48.574Z,100422.59
2023-02-19T04:12:20.196Z,100429.38
2023-02-19T04:14:53.904Z,100448.81
2023-02-19T04:17:28.648Z,100461.38
2023-02-19T04:20:01.523Z,100456.97
2023-02-19T04:22:30.916Z,100435.28
2023-02-19T04:24:59.252Z,100419.78
2023-02-19T04:27:27.521Z,100471.06
2023-02-19T04:29:55.639Z,100458.69
2023-02-19T04:32:23.773Z,100477.28
2023-02-19T04:34:54.248Z,100448.50
2023-02-19T04:37:23.896Z,100447.69
2023-02-19T04:39:51.953Z,100487.13
2023-02-19T04:42:20.057Z,100470.94
2023-02-19T04:44:48.165Z,100490.81
2023-02-19T04:47:17.856Z,100487.28
2023-02-19T04:49:46.113Z,100487.13
2023-02-19T04:52:14.530Z,100466.41
2023-02-19T04:54:44.030Z,100492.63
2023-02-19T04:57:12.538Z,100485.47
2023-02-19T04:59:40.783Z,100501.53
2023-02-19T05:02:09.126Z,100506.88
2023-02-19T05:04:37.453Z,100506.88
2023-02-19T05:07:05.684Z,100501.53
2023-02-19T05:09:33.940Z,100496.41
2023-02-19T05:12:03.791Z,100521.94
2023-02-19T05:14:31.908Z,100526.59
2023-02-19T05:17:00.096Z,100525.63
2023-02-19T05:19:28.463Z,100491.59
2023-02-19T05:21:56.921Z,100533.78
2023-02-19T05:24:26.989Z,100539.81
2023-02-19T05:26:55.100Z,100539.00
2023-02-19T05:29:24.774Z,100533.66
2023-02-19T05:31:53.105Z,100538.00
2023-02-19T05:34:21.542Z,100537.00
2023-02-19T05:36:49.925Z,100547.72
2023-02-19T05:39:18.510Z,100537.28
2023-02-19T05:41:46.778Z,100550.41
2023-02-19T05:44:14.904Z,100547.72
2023-02-19T05:46:44.495Z,100493.84
2023-02-19T05:49:12.692Z,100553.94
2023-02-19T05:51:40.842Z,100562.81
2023-02-19T05:54:10.262Z,100563.78
2023-02-19T05:56:40.196Z,100563.78
2023-02-19T05:59:15.489Z,100564.06
2023-02-19T06:01:45.059Z,100547.41
2023-02-19T06:04:14.253Z,100550.50
2023-02-19T06:06:44.269Z,100562.63
2023-02-19T06:09:15.067Z,100578.16
2023-02-19T06:11:43.769Z,100578.16
2023-02-19T06:14:14.776Z,100588.88
2023-02-19T06:16:45.795Z,100588.88
2023-02-19T06:19:14.549Z,100582.53
2023-02-19T06:21:42.719Z,100583.53
2023-02-19T06:24:11.633Z,100588.88
2023-02-19T06:26:40.326Z,100600.56
2023-02-19T06:29:08.970Z,100571.75
2023-02-19T06:31:37.209Z,100596.19
2023-02-19T06:34:07.623Z,100566.81
2023-02-19T06:36:36.128Z,100550.28
2023-02-19T06:39:06.298Z,100600.97
2023-02-19T06:41:35.397Z,100615.06
2023-02-19T06:44:03.615Z,100587.13
2023-02-19T06:46:32.988Z,100619.59
2023-02-19T06:49:01.252Z,100612.53
2023-02-19T06:51:32.778Z,100615.91
2023-02-19T06:54:02.447Z,100611.56
2023-02-19T06:56:32.462Z,100610.56
2023-02-19T06:59:02.429Z,100568.75
2023-02-19T07:01:32.363Z,100617.88
2023-02-19T07:04:02.287Z,100616.91
2023-02-19T07:06:34.022Z,100624.09
2023-02-19T07:09:04.500Z,100615.91
2023-02-19T07:11:35.215Z,100612.53
2023-02-19T07:14:05.319Z,100613.09
2023-02-19T07:16:34.244Z,100634.66
2023-02-19T07:19:03.501Z,100632.97
2023-02-19T07:21:38.356Z,100641.00
2023-02-19T07:24:07.471Z,100640.16
2023-02-19T07:26:36.126Z,100646.34
2023-02-19T07:29:04.758Z,100650.72
2023-02-19T07:31:33.023Z,100636.59
2023-02-19T07:34:01.307Z,100653.66
2023-02-19T07:36:29.989Z,100624.88
2023-02-19T07:39:03.806Z,100655.09
2023-02-19T07:41:33.356Z,100629.41
2023-02-19T07:44:02.238Z,100656.16
2023-02-19T07:46:31.226Z,100651.50
2023-02-19T07:49:07.320Z,100638.28
2023-02-19T07:51:35.469Z,100643.69
2023-02-19T07:54:08.386Z,100607.56
2023-02-19T07:56:36.601Z,100644.81
2023-02-19T07:59:06.813Z,100644.81
2023-02-19T08:01:52.603Z,100659.22
2023-02-19T08:04:20.688Z,100660.47
2023-02-19T08:06:48.974Z,100680.06
2023-02-19T08:09:18.547Z,100681.19
2023-02-19T08:12:09.247Z,100688.53
2023-02-19T08:14:37.385Z,100677.22
2023-02-19T08:17:05.654Z,100673.00
2023-02-19T08:19:34.229Z,100666.94
2023-02-19T08:22:02.425Z,100674.97
2023-02-19T08:24:33.968Z,100673.25
2023-02-19T08:27:02.197Z,100680.47
2023-02-19T08:29:30.343Z,100685.97
2023-02-19T08:31:58.507Z,100691.31
2023-02-19T08:34:26.753Z,100707.41
2023-02-19T08:36:54.930Z,100705.69
2023-02-19T08:39:23.234Z,100694.97
2023-02-19T08:41:52.759Z,100704.84
2023-02-19T08:44:21.106Z,100704.00
2023-02-19T08:46:49.282Z,100711.03
2023-02-19T08:49:17.723Z,100648.56
2023-02-19T08:51:45.906Z,100714.72
2023-02-19T08:54:14.079Z,100720.19
2023-02-19T08:56:42.233Z,100717.66
2023-02-19T08:59:11.881Z,100723.75
2023-02-19T09:01:40.259Z,100677.94
2023-02-19T09:04:09.769Z,100718.38
2023-02-19T09:06:40.013Z,100722.03
2023-02-19T09:09:08.272Z,100722.03
2023-02-19T09:11:36.517Z,100714.09
2023-02-19T09:14:07.563Z,100727.38
2023-02-19T09:16:38.003Z,100727.38
2023-02-19T09:19:06.368Z,100728.25
2023-02-19T09:21:34.596Z,100731.91
2023-02-19T09:24:02.882Z,100743.44
2023-02-19T09:26:30.956Z,100735.28
2023-02-19T09:28:59.089Z,100716.78
2023-02-19T09:31:27.390Z,100735.28
2023-02-19T09:33:57.014Z,100748.81
2023-02-19T09:36:25.152Z,100748.94
2023-02-19T09:38:53.437Z,100679.28
2023-02-19T09:41:30.151Z,100749.06
2023-02-19T09:43:59.888Z,100746.41
2023-02-19T09:46:32.657Z,100750.78
2023-02-19T09:49:06.636Z,100706.41
2023-02-19T09:51:37.727Z,100748.25
2023-02-19T09:54:08.925Z,100754.44
2023-02-19T09:56:37.328Z,100748.38
2023-02-19T09:59:07.356Z,100768.81
2023-02-19T10:01:41.110Z,100765.16
2023-02-19T10:04:12.435Z,100775.84
2023-02-19T10:06:40.731Z,100777.56
2023-02-19T10:09:23.927Z,100776.72
2023-02-19T10:11:55.870Z,100755.13
2023-02-19T10:14:30.430Z,100797.28
2023-02-19T10:17:06.505Z,100770.41
2023-02-19T10:19:37.327Z,100806.19
2023-02-19T10:22:06.212Z,100796.31
2023-02-19T10:24:36.418Z,100734.09
2023-02-19T10:27:14.002Z,100796.06
2023-02-19T10:29:45.077Z,100788.03
2023-02-19T10:32:22.037Z,100782.66
2023-02-19T10:35:10.242Z,100790.69
2023-02-19T10:37:45.750Z,100773.91
2023-02-19T10:40:27.620Z,100794.59
2023-02-19T10:43:00.477Z,100797.28
2023-02-19T10:45:36.146Z,100791.22
2023-02-19T10:48:10.023Z,100770.13
2023-02-19T10:50:45.003Z,100798.41
2023-02-19T10:53:23.534Z,100802.91
2023-02-19T10:56:08.718Z,100768.97
2023-02-19T10:58:41.106Z,100797.56
2023-02-19T11:01:19.868Z,100765.31
2023-02-19T11:03:50.169Z,100799.41
2023-02-19T11:06:24.415Z,100746.38
2023-02-19T11:08:56.770Z,100780.31
2023-02-19T11:11:40.024Z,100774.50
2023-02-19T11:14:18.297Z,100797.41
2023-02-19T11:16:49.799Z,100761.66
2023-02-19T11:19:32.866Z,100781.47
2023-02-19T11:22:03.697Z,100771.28
2023-02-19T11:24:37.479Z,100792.19
2023-02-19T11:27:07.890Z,100793.19
2023-02-19T11:29:36.313Z,100795.88
2023-02-19T11:32:27.361Z,100812.78
2023-02-19T11:35:17.911Z,100797.56
2023-02-19T11:37:59.001Z,100781.72
2023-02-19T11:40:41.649Z,100763.03
2023-02-19T11:43:36.403Z,100788.81
2023-02-19T11:46:14.072Z,100785.41
2023-02-19T11:48:55.089Z,100772.28
2023-02-19T11:51:41.194Z,100788.81
2023-02-19T11:54:23.171Z,100791.94
2023-02-19T11:57:00.696Z,100734.72
2023-02-19T11:59:34.932Z,100781.22
2023-02-19T12:02:23.868Z,100730.31
2023-02-19T12:05:13.883Z,100760.59
2023-02-19T12:08:11.537Z,100765.69
2023-02-19T12:10:58.740Z,100761.78
2023-02-19T12:13:36.758Z,100724.88
2023-02-19T12:16:22.378Z,100756.41
2023-02-19T12:19:19.936Z,100755.56
2023-02-19T12:22:05.788Z,100728.97
2023-02-19T12:25:18.182Z,100749.34
2023-02-19T12:28:01.728Z,100746.66
2023-02-19T12:30:49.167Z,100745.97
2023-02-19T12:33:39.846Z,100692.53
2023-02-19T12:36:17.622Z,100735.19
2023-02-19T12:38:50.825Z,100726.03
2023-02-19T12:41:31.267Z,100712.50
2023-02-19T12:44:07.365Z,100729.91
2023-02-19T12:46:40.646Z,100721.41
2023-02-19T12:49:14.261Z,100725.09
2023-02-19T12:51:46.945Z,100724.53
2023-02-19T12:54:23.842Z,100719.19
2023-02-19T12:56:59.139Z,100713.84
2023-02-19T12:59:34.673Z,100713.84
2023-02-19T13:02:15.109Z,100704.81
2023-02-19T13:04:49.032Z,100686.41
2023-02-19T13:07:21.823Z,100694.34
2023-02-19T13:09:54.150Z,100695.09
2023-02-19T13:12:27.655Z,100671.78
2023-02-19T13:15:01.800Z,100674.63
2023-02-19T13:17:38.422Z,100667.31
2023-02-19T13:20:19.587Z,100640.34
2023-02-19T13:23:15.092Z,100672.66
2023-02-19T13:25:57.510Z,100669.00
2023-02-19T13:28:43.121Z,100672.66
2023-02-19T13:31:46.739Z,100683.38
2023-02-19T13:34:26.986Z,100665.63
2023-02-19T13:36:56.507Z,100650.38
2023-02-19T13:39:24.901Z,100660.25
2023-02-19T13:42:11.943Z,100629.06
2023-02-19T13:44:42.417Z,100649.56
2023-02-19T13:47:43.781Z,100644.19
2023-02-19T13:50:20.027Z,100632.44
2023-02-19T13:52:48.208Z,100585.72
2023-02-19T13:55:54.139Z,100640.53
2023-02-19T13:58:56.039Z,100633.34
2023-02-19T14:02:08.460Z,100616.78
2023-02-19T14:04:54.669Z,100644.19
2023-02-19T14:07:37.267Z,100635.16
2023-02-19T14:10:07.818Z,100637.84
2023-02-19T14:12:37.281Z,100644.88
2023-02-19T14:15:41.703Z,100642.22
2023-02-19T14:18:44.392Z,100640.53
2023-02-19T14:21:19.594Z,100633.47
2023-02-19T14:23:54.833Z,100630.22
2023-02-19T14:26:23.919Z,100628.13
2023-02-19T14:28:54.032Z,100582.38
2023-02-19T14:31:29.318Z,100631.78
2023-02-19T14:34:01.906Z,100633.47
2023-02-19T14:36:45.659Z,100650.25
2023-02-19T14:39:19.038Z,100654.63
2023-02-19T14:41:49.903Z,100653.78
2023-02-19T14:44:23.408Z,100661.09
2023-02-19T14:46:58.049Z,100607.75
2023-02-19T14:49:31.921Z,100655.19
2023-02-19T14:52:02.427Z,100660.13
2023-02-19T14:54:45.261Z,100654.38
2023-02-19T14:57:19.100Z,100671.31
2023-02-19T14:59:57.757Z,100656.38
2023-02-19T15:02:27.195Z,100660.31
2023-02-19T15:04:56.316Z,100649.59
2023-02-19T15:07:29.210Z,100642.25
2023-02-19T15:10:05.090Z,100658.31
2023-02-19T15:12:42.722Z,100638.59
2023-02-19T15:15:19.479Z,100633.53
2023-02-19T15:17:47.992Z,100635.47
2023-02-19T15:20:20.426Z,100628.44
2023-02-19T15:22:48.855Z,100625.31
2023-02-19T15:25:22.094Z,100569.13
2023-02-19T15:27:50.380Z,100614.59
2023-02-19T15:30:28.569Z,100620.22
2023-02-19T15:32:58.625Z,100615.28
2023-02-19T15:35:29.905Z,100617.69
2023-02-19T15:37:59.459Z,100603.56
2023-02-19T15:40:32.693Z,100617.16
2023-02-19T15:43:02.395Z,100599.22
2023-02-19T15:45:38.365Z,100626.88
2023-02-19T15:48:11.010Z,100621.06
2023-02-19T15:50:44.283Z,100638.56
2023-02-19T15:53:18.364Z,100629.53
2023-02-19T15:55:56.122Z,100627.84
2023-02-19T15:58:30.161Z,100627.84
2023-02-19T16:01:03.056Z,100628.69
2023-02-19T16:03:32.475Z,100562.06
2023-02-19T16:06:03.198Z,100595.09
2023-02-19T16:08:34.703Z,100623.47
2023-02-19T16:11:08.204Z,100620.78
2023-02-19T16:13:37.023Z,100628.81
2023-02-19T16:16:15.493Z,100619.06
2023-02-19T16:18:47.545Z,100632.34
2023-02-19T16:21:19.269Z,100633.22
2023-02-19T16:23:51.038Z,100615.56
2023-02-19T16:26:20.937Z,100624.19
2023-02-19T16:28:52.810Z,100629.81
2023-02-19T16:31:23.834Z,100619.09
2023-02-19T16:33:53.716Z,100584.38
2023-02-19T16:36:35.753Z,100633.22
2023-02-19T16:39:25.088Z,100617.16
2023-02-19T16:42:19.673Z,100613.75
2023-02-19T16:44:50.973Z,100597.38
2023-02-19T16:47:33.904Z,100614.59
2023-02-19T16:50:06.164Z,100618.09
2023-02-19T16:52:39.075Z,100615.44
2023-02-19T16:55:14.311Z,100604.72
2023-02-19T16:57:44.118Z,100606.44
2023-02-19T17:00:20.090Z,100601.06
2023-02-19T17:02:49.596Z,100590.38
2023-02-19T17:05:18.444Z,100579.66
2023-02-19T17:07:46.757Z,100563.50
2023-02-19T17:10:17.950Z,100590.38
2023-02-19T17:12:47.858Z,100586.69
2023-02-19T17:15:17.223Z,100592.03
2023-02-19T17:17:46.402Z,100564.69
2023-02-19T17:20:24.378Z,100554.53
2023-02-19T17:22:53.792Z,100585.00
2023-02-19T17:25:21.903Z,100568.03
2023-02-19T17:27:51.924Z,100550.13
2023-02-19T17:30:27.129Z,100569.63
2023-02-19T17:32:57.214Z,100549.72
2023-02-19T17:35:26.332Z,100572.84
2023-02-19T17:37:55.212Z,100538.16
2023-02-19T17:40:33.157Z,100585.00
2023-02-19T17:43:08.032Z,100588.50
2023-02-19T17:45:36.101Z,100537.56
2023-02-19T17:48:05.712Z,100576.25
2023-02-19T17:50:34.583Z,100573.28
2023-02-19T17:53:03.697Z,100574.28
2023-02-19T17:55:32.539Z,100560.19
2023-02-19T17:58:02.962Z,100538.88
2023-02-19T18:00:32.374Z,100546.94
2023-02-19T18:03:01.109Z,100531.09
2023-02-19T18:05:30.591Z,100525.06
2023-02-19T18:08:00.394Z,100553.69
2023-02-19T18:10:30.490Z,100550.88
2023-02-19T18:12:58.782Z,100548.19
2023-02-19T18:15:29.016Z,100543.56
2023-02-19T18:17:59.069Z,100545.25
2023-02-19T18:20:28.937Z,100536.25
2023-02-19T18:22:57.788Z,100524.91
2023-02-19T18:25:26.284Z,100545.50
2023-02-19T18:27:55.242Z,100515.63
2023-02-19T18:30:24.742Z,100545.81
2023-02-19T18:32:54.326Z,100552.84
2023-02-19T18:35:22.960Z,100562.75
2023-02-19T18:37:52.921Z,100569.22
2023-02-19T18:40:21.515Z,100573.75
2023-02-19T18:42:49.663Z,100575.69
2023-02-19T18:45:18.292Z,100575.41
2023-02-19T18:47:48.501Z,100537.00
2023-02-19T18:50:20.078Z,100588.81
2023-02-19T18:52:48.259Z,100582.75
2023-02-19T18:55:16.676Z,100579.09
2023-02-19T18:57:45.279Z,100586.41
2023-02-19T19:00:18.319Z,100586.41
2023-02-19T19:02:49.707Z,100595.72
2023-02-19T19:05:23.368Z,100585.00
2023-02-19T19:07:52.461Z,100588.38
2023-02-19T19:10:20.878Z,100583.00
2023-02-19T19:12:49.928Z,100581.34
2023-02-19T19:15:19.150Z,100583.00
2023-02-19T19:17:47.664Z,100563.69
2023-02-19T19:20:17.302Z,100580.34
2023-02-19T19:22:46.969Z,100583.00
2023-02-19T19:25:15.358Z,100572.31
2023-02-19T19:27:43.512Z,100562.59
2023-02-19T19:30:12.451Z,100569.63
2023-02-19T19:32:40.952Z,100533.94
2023-02-19T19:35:09.778Z,100577.66
2023-02-19T19:37:37.903Z,100560.72
2023-02-19T19:40:09.583Z,100565.69
2023-02-19T19:42:37.858Z,100525.75
2023-02-19T19:45:06.717Z,100561.59
2023-02-19T19:47:35.817Z,100556.22
2023-02-19T19:50:04.137Z,100550.88
2023-02-19T19:52:32.403Z,100531.09
2023-02-19T19:55:00.597Z,100553.56
2023-02-19T19:57:30.229Z,100547.50
2023-02-19T19:59:58.421Z,100543.13
2023-02-19T20:02:26.764Z,100540.44
2023-02-19T20:04:55.121Z,100542.16
2023-02-19T20:07:23.376Z,100542.16
2023-02-19T20:09:51.786Z,100503.94
2023-02-19T20:12:19.947Z,100526.91
2023-02-19T20:14:49.605Z,100537.91
2023-02-19T20:17:17.759Z,100515.03
2023-02-19T20:19:47.231Z,100531.44
2023-02-19T20:22:15.412Z,100531.72
2023-02-19T20:24:43.561Z,100537.06
2023-02-19T20:27:11.917Z,100526.38
2023-02-19T20:29:40.022Z,100524.91
2023-02-19T20:32:09.575Z,100525.66
2023-02-19T20:34:38.222Z,100533.41
2023-02-19T20:37:06.976Z,100527.47
2023-02-19T20:39:37.011Z,100521.97
2023-02-19T20:42:05.953Z,100517.47
2023-02-19T20:44:34.251Z,100493.91
2023-02-19T20:47:03.067Z,100506.91
2023-02-19T20:49:34.421Z,100500.53
2023-02-19T20:52:06.118Z,100502.41
2023-02-19T20:54:36.297Z,100496.19
2023-02-19T20:57:06.682Z,100499.84
2023-02-19T20:59:36.016Z,100505.22
2023-02-19T21:02:05.451Z,100506.88
2023-02-19T21:04:35.562Z,100511.41
2023-02-19T21:07:03.606Z,100519.44
2023-02-19T21:09:32.215Z,100517.59
2023-02-19T21:12:00.408Z,100512.25
2023-02-19T21:14:28.420Z,100505.22
2023-02-19T21:16:56.705Z,100503.50
2023-02-19T21:19:24.846Z,100497.19
2023-02-19T21:21:54.311Z,100497.88
2023-02-19T21:24:22.380Z,100496.19
2023-02-19T21:26:50.450Z,100484.63
2023-02-19T21:29:21.561Z,100460.66
2023-02-19T21:31:52.764Z,100474.91
2023-02-19T21:34:23.239Z,100493.50
2023-02-19T21:36:51.453Z,100483.78
2023-02-19T21:39:22.843Z,100449.38
2023-02-19T21:41:51.779Z,100445.72
2023-02-19T21:44:21.182Z,100437.00
2023-02-19T21:46:50.137Z,100449.09
2023-02-19T21:49:18.802Z,100433.88
2023-02-19T21:51:48.801Z,100461.50
2023-02-19T21:54:20.929Z,100465.72
2023-02-19T21:56:50.428Z,100448.81
2023-02-19T21:59:18.718Z,100458.69
2023-02-19T22:01:47.267Z,100450.66
2023-02-19T22:04:17.308Z,100390.94
2023-02-19T22:06:45.866Z,100415.00
2023-02-19T22:09:15.017Z,100430.25
2023-02-19T22:11:43.183Z,100430.25
2023-02-19T22:14:12.760Z,100392.03
2023-02-19T22:16:40.871Z,100423.16
2023-02-19T22:19:09.110Z,100426.56
2023-02-19T22:21:37.181Z,100378.38
2023-02-19T22:24:05.701Z,100419.53
2023-02-19T22:26:35.925Z,100408.81
2023-02-19T22:29:07.338Z,100386.53
2023-02-19T22:31:37.256Z,100346.38
2023-02-19T22:34:06.412Z,100382.59
2023-02-19T22:36:37.328Z,100388.34
2023-02-19T22:39:06.893Z,100386.53
2023-02-19T22:41:35.515Z,100376.69
2023-02-19T22:44:03.943Z,100380.31
2023-02-19T22:46:32.505Z,100365.13
2023-02-19T22:49:04.266Z,100356.38
2023-02-19T22:51:32.931Z,100355.25
2023-02-19T22:54:01.652Z,100340.16
2023-02-19T22:56:30.480Z,100301.19
2023-02-19T22:58:59.337Z,100280.91
2023-02-19T23:01:27.553Z,100310.69
2023-02-19T23:03:57.231Z,100282.25
2023-02-19T23:06:28.755Z,100219.50
2023-02-19T23:08:58.341Z,100273.22
2023-02-19T23:11:28.318Z,100278.56
2023-02-19T23:13:56.750Z,100254.94
2023-02-19T23:16:24.983Z,100267.84
2023-02-19T23:18:53.762Z,100274.94
2023-02-19T23:21:23.729Z,100264.22
2023-02-19T23:23:53.885Z,100266.88
2023-02-19T23:26:22.056Z,100251.66
2023-02-19T23:28:50.577Z,100240.13
2023-02-19T23:31:19.162Z,100219.66
2023-02-19T23:33:47.802Z,100223.06
2023-02-19T23:36:16.720Z,100216.16
2023-02-19T23:38:46.428Z,100201.34
2023-02-19T23:41:17.618Z,100192.88
2023-02-19T23:43:45.802Z,100184.72
2023-02-19T23:46:17.623Z,100174.84
2023-02-19T23:48:46.478Z,100179.34
2023-02-19T23:51:14.984Z,100173.16
2023-02-19T23:53:43.132Z,100173.16
2023-02-19T23:56:11.681Z,100148.25
2023-02-19T23:58:41.503Z,100132.91
